sensor_id;sensor_type;location;lat;lon;timestamp;pressure;altitude;pressure_sealevel;temperature;humidity
6829;BME280;17930;48.592;8.868;2023-05-20T00:00:21;96850.63;;;11.63;100.00
6829;BME280;17930;48.592;8.868;2023-05-20T00:02:49;96843.97;;;11.76;100.00
6829;BME280;17930;48.592;8.868;2023-05-20T00:05:15;96856.03;;;11.72;100.00
6829;BME280;17930;48.592;8.868;2023-05-20T00:07:42;96848.56;;;11.60;100.00
6829;BME280;17930;48.592;8.868;2023-05-20T00:10:09;96846.13;;;11.69;100.00
6829;BME280;17930;48.592;8.868;2023-05-20T00:12:37;96841.66;;;11.74;100.00
6829;BME280;17930;48.592;8.868;2023-05-20T00:15:04;96847.88;;;11.78;100.00
6829;BME280;17930;48.592;8.868;2023-05-20T00:17:31;96843.97;;;11.76;100.00
6829;BME280;17930;48.592;8.868;2023-05-20T00:19:59;96844.47;;;11.77;100.00
6829;BME280;17930;48.592;8.868;2023-05-20T00:22:26;96842.31;;;11.84;100.00
6829;BME280;17930;48.592;8.868;2023-05-20T00:24:52;96844.44;;;11.82;100.00
6829;BME280;17930;48.592;8.868;2023-05-20T00:27:19;96843.34;;;11.88;100.00
6829;BME280;17930;48.592;8.868;2023-05-20T00:29:46;96835.53;;;11.83;100.00
6829;BME280;17930;48.592;8.868;2023-05-20T00:32:12;96834.75;;;11.83;100.00
6829;BME280;17930;48.592;8.868;2023-05-20T00:34:39;96841.00;;;11.87;100.00
6829;BME280;17930;48.592;8.868;2023-05-20T00:37:07;96840.06;;;11.78;100.00
6829;BME280;17930;48.592;8.868;2023-05-20T00:39:34;96837.84;;;11.85;100.00
6829;BME280;17930;48.592;8.868;2023-05-20T00:42:01;96837.44;;;11.78;100.00
6829;BME280;17930;48.592;8.868;2023-05-20T00:44:28;96839.53;;;11.76;100.00
6829;BME280;17930;48.592;8.868;2023-05-20T00:46:54;96835.34;;;11.75;100.00
6829;BME280;17930;48.592;8.868;2023-05-20T00:49:21;96833.63;;;11.89;100.00
6829;BME280;17930;48.592;8.868;2023-05-20T00:51:48;96832.50;;;12.00;100.00
6829;BME280;17930;48.592;8.868;2023-05-20T00:54:17;96826.31;;;11.91;100.00
6829;BME280;17930;48.592;8.868;2023-05-20T00:56:44;96827.56;;;11.93;100.00
6829;BME280;17930;48.592;8.868;2023-05-20T00:59:11;96823.31;;;12.02;100.00
6829;BME280;17930;48.592;8.868;2023-05-20T01:01:38;96818.84;;;12.03;100.00
6829;BME280;17930;48.592;8.868;2023-05-20T01:04:05;96822.31;;;11.98;100.00
6829;BME280;17930;48.592;8.868;2023-05-20T01:06:31;96826.97;;;12.01;100.00
6829;BME280;17930;48.592;8.868;2023-05-20T01:08:58;96817.75;;;12.09;100.00
6829;BME280;17930;48.592;8.868;2023-05-20T01:11:28;96813.31;;;12.09;100.00
6829;BME280;17930;48.592;8.868;2023-05-20T01:14:02;96812.78;;;12.30;100.00
6829;BME280;17930;48.592;8.868;2023-05-20T01:16:32;96811.72;;;12.31;100.00
6829;BME280;17930;48.592;8.868;2023-05-20T01:19:02;96808.59;;;12.29;100.00
6829;BME280;17930;48.592;8.868;2023-05-20T01:21:29;96814.13;;;12.28;100.00
6829;BME280;17930;48.592;8.868;2023-05-20T01:23:57;96809.59;;;12.33;100.00
6829;BME280;17930;48.592;8.868;2023-05-20T01:26:26;96814.44;;;12.45;100.00
6829;BME280;17930;48.592;8.868;2023-05-20T01:28:53;96801.63;;;12.43;100.00
6829;BME280;17930;48.592;8.868;2023-05-20T01:31:23;96812.44;;;12.37;100.00
6829;BME280;17930;48.592;8.868;2023-05-20T01:33:54;96813.22;;;12.37;100.00
6829;BME280;17930;48.592;8.868;2023-05-20T01:36:22;96806.59;;;12.22;100.00
6829;BME280;17930;48.592;8.868;2023-05-20T01:38:52;96799.97;;;12.11;100.00
6829;BME280;17930;48.592;8.868;2023-05-20T01:41:20;96797.50;;;12.19;100.00
6829;BME280;17930;48.592;8.868;2023-05-20T01:43:49;96801.38;;;12.22;100.00
6829;BME280;17930;48.592;8.868;2023-05-20T01:46:16;96803.50;;;12.20;100.00
6829;BME280;17930;48.592;8.868;2023-05-20T01:48:42;96803.94;;;12.27;100.00
6829;BME280;17930;48.592;8.868;2023-05-20T01:51:09;96797.66;;;12.27;100.00
6829;BME280;17930;48.592;8.868;2023-05-20T01:53:36;96801.47;;;12.35;100.00
6829;BME280;17930;48.592;8.868;2023-05-20T01:56:04;96794.38;;;12.17;100.00
6829;BME280;17930;48.592;8.868;2023-05-20T01:58:32;96795.94;;;12.18;100.00
6829;BME280;17930;48.592;8.868;2023-05-20T02:00:58;96794.72;;;12.11;100.00
6829;BME280;17930;48.592;8.868;2023-05-20T02:03:25;96799.03;;;12.20;100.00
6829;BME280;17930;48.592;8.868;2023-05-20T02:05:52;96792.84;;;12.16;100.00
6829;BME280;17930;48.592;8.868;2023-05-20T02:08:19;96793.09;;;12.15;100.00
6829;BME280;17930;48.592;8.868;2023-05-20T02:10:46;96791.00;;;12.17;100.00
6829;BME280;17930;48.592;8.868;2023-05-20T02:13:13;96796.13;;;12.22;100.00
6829;BME280;17930;48.592;8.868;2023-05-20T02:15:41;96793.03;;;12.20;100.00
6829;BME280;17930;48.592;8.868;2023-05-20T02:18:09;96791.91;;;12.26;100.00
6829;BME280;17930;48.592;8.868;2023-05-20T02:20:36;96790.34;;;12.25;100.00
6829;BME280;17930;48.592;8.868;2023-05-20T02:23:03;96796.13;;;12.22;100.00
6829;BME280;17930;48.592;8.868;2023-05-20T02:25:30;96794.53;;;12.26;100.00
6829;BME280;17930;48.592;8.868;2023-05-20T02:27:57;96795.69;;;12.15;100.00
6829;BME280;17930;48.592;8.868;2023-05-20T02:30:25;96794.59;;;12.21;100.00
6829;BME280;17930;48.592;8.868;2023-05-20T02:32:53;96791.38;;;12.05;100.00
6829;BME280;17930;48.592;8.868;2023-05-20T02:35:19;96790.59;;;12.05;100.00
6829;BME280;17930;48.592;8.868;2023-05-20T02:37:46;96789.34;;;12.02;100.00
6829;BME280;17930;48.592;8.868;2023-05-20T02:40:13;96789.53;;;12.06;100.00
6829;BME280;17930;48.592;8.868;2023-05-20T02:42:39;96785.38;;;12.05;100.00
6829;BME280;17930;48.592;8.868;2023-05-20T02:45:07;96783.38;;;11.97;100.00
6829;BME280;17930;48.592;8.868;2023-05-20T02:47:34;96788.38;;;11.93;100.00
6829;BME280;17930;48.592;8.868;2023-05-20T02:50:02;96789.72;;;11.91;100.00
6829;BME280;17930;48.592;8.868;2023-05-20T02:52:28;96795.69;;;11.96;100.00
6829;BME280;17930;48.592;8.868;2023-05-20T02:54:55;96793.38;;;11.90;100.00
6829;BME280;17930;48.592;8.868;2023-05-20T02:57:22;96802.06;;;11.85;100.00
6829;BME280;17930;48.592;8.868;2023-05-20T02:59:48;96808.63;;;11.83;100.00
6829;BME280;17930;48.592;8.868;2023-05-20T03:02:16;96801.81;;;11.82;100.00
6829;BME280;17930;48.592;8.868;2023-05-20T03:04:43;96807.06;;;11.82;100.00
6829;BME280;17930;48.592;8.868;2023-05-20T03:07:12;96800.47;;;11.89;100.00
6829;BME280;17930;48.592;8.868;2023-05-20T03:09:40;96805.72;;;11.84;100.00
6829;BME280;17930;48.592;8.868;2023-05-20T03:12:07;96804.72;;;11.80;100.00
6829;BME280;17930;48.592;8.868;2023-05-20T03:14:34;96810.97;;;11.84;100.00
6829;BME280;17930;48.592;8.868;2023-05-20T03:17:00;96801.81;;;11.82;100.00
6829;BME280;17930;48.592;8.868;2023-05-20T03:19:27;96805.72;;;11.84;100.00
6829;BME280;17930;48.592;8.868;2023-05-20T03:21:54;96802.38;;;11.79;100.00
6829;BME280;17930;48.592;8.868;2023-05-20T03:24:21;96793.84;;;11.97;100.00
6829;BME280;17930;48.592;8.868;2023-05-20T03:26:48;96792.19;;;11.82;100.00
6829;BME280;17930;48.592;8.868;2023-05-20T03:29:15;96792.38;;;11.86;100.00
6829;BME280;17930;48.592;8.868;2023-05-20T03:31:43;96801.28;;;11.85;100.00
6829;BME280;17930;48.592;8.868;2023-05-20T03:34:10;96800.06;;;11.77;100.00
6829;BME280;17930;48.592;8.868;2023-05-20T03:36:37;96796.94;;;11.76;100.00
6829;BME280;17930;48.592;8.868;2023-05-20T03:39:04;96797.97;;;11.79;100.00
6829;BME280;17930;48.592;8.868;2023-05-20T03:41:32;96795.94;;;11.72;100.00
6829;BME280;17930;48.592;8.868;2023-05-20T03:43:59;96796.72;;;11.72;100.00
6829;BME280;17930;48.592;8.868;2023-05-20T03:46:25;96799.84;;;11.74;100.00
6829;BME280;17930;48.592;8.868;2023-05-20T03:48:52;96798.50;;;11.76;100.00
6829;BME280;17930;48.592;8.868;2023-05-20T03:51:18;96802.28;;;11.89;100.00
6829;BME280;17930;48.592;8.868;2023-05-20T03:53:45;96793.66;;;11.88;100.00
6829;BME280;17930;48.592;8.868;2023-05-20T03:56:11;96790.47;;;11.96;100.00
6829;BME280;17930;48.592;8.868;2023-05-20T03:58:41;96792.50;;;11.99;100.00
6829;BME280;17930;48.592;8.868;2023-05-20T04:01:08;96791.03;;;12.12;100.00
6829;BME280;17930;48.592;8.868;2023-05-20T04:03:37;96788.69;;;12.10;100.00
6829;BME280;17930;48.592;8.868;2023-05-20T04:06:04;96789.25;;;12.07;100.00
6829;BME280;17930;48.592;8.868;2023-05-20T04:08:31;96794.72;;;12.11;100.00
6829;BME280;17930;48.592;8.868;2023-05-20T04:10:58;96798.38;;;12.10;100.00
6829;BME280;17930;48.592;8.868;2023-05-20T04:13:25;96786.03;;;12.15;100.00
6829;BME280;17930;48.592;8.868;2023-05-20T04:15:52;96784.34;;;12.24;100.00
6829;BME280;17930;48.592;8.868;2023-05-20T04:18:19;96786.31;;;12.14;100.00
6829;BME280;17930;48.592;8.868;2023-05-20T04:20:46;96783.34;;;12.20;100.00
6829;BME280;17930;48.592;8.868;2023-05-20T04:23:13;96777.78;;;12.27;100.00
6829;BME280;17930;48.592;8.868;2023-05-20T04:25:39;96777.63;;;12.18;100.00
6829;BME280;17930;48.592;8.868;2023-05-20T04:28:06;96782.13;;;12.13;100.00
6829;BME280;17930;48.592;8.868;2023-05-20T04:30:34;96780.13;;;12.05;100.00
6829;BME280;17930;48.592;8.868;2023-05-20T04:33:02;96776.91;;;12.13;100.00
6829;BME280;17930;48.592;8.868;2023-05-20T04:35:29;96770.78;;;12.22;100.00
6829;BME280;17930;48.592;8.868;2023-05-20T04:37:56;96781.25;;;12.22;100.00
6829;BME280;17930;48.592;8.868;2023-05-20T04:40:22;96780.44;;;12.22;100.00
6829;BME280;17930;48.592;8.868;2023-05-20T04:42:49;96778.91;;;12.21;100.00
6829;BME280;17930;48.592;8.868;2023-05-20T04:45:16;96779.00;;;12.34;100.00
6829;BME280;17930;48.592;8.868;2023-05-20T04:47:42;96776.16;;;12.30;100.00
6829;BME280;17930;48.592;8.868;2023-05-20T04:50:11;96772.34;;;12.41;100.00
6829;BME280;17930;48.592;8.868;2023-05-20T04:52:39;96779.38;;;12.46;100.00
6829;BME280;17930;48.592;8.868;2023-05-20T04:55:07;96781.63;;;12.52;100.00
6829;BME280;17930;48.592;8.868;2023-05-20T04:57:35;96775.97;;;12.64;100.00
6829;BME280;17930;48.592;8.868;2023-05-20T05:00:03;96786.78;;;12.76;100.00
6829;BME280;17930;48.592;8.868;2023-05-20T05:02:32;96782.75;;;12.83;100.00
6829;BME280;17930;48.592;8.868;2023-05-20T05:04:58;96776.81;;;12.96;100.00
6829;BME280;17930;48.592;8.868;2023-05-20T05:07:26;96780.34;;;13.05;100.00
6829;BME280;17930;48.592;8.868;2023-05-20T05:09:53;96770.66;;;13.05;100.00
6829;BME280;17930;48.592;8.868;2023-05-20T05:12:20;96759.38;;;13.05;100.00
6829;BME280;17930;48.592;8.868;2023-05-20T05:14:46;96761.59;;;13.30;100.00
6829;BME280;17930;48.592;8.868;2023-05-20T05:17:14;96757.19;;;13.43;100.00
6829;BME280;17930;48.592;8.868;2023-05-20T05:19:41;96759.69;;;13.48;100.00
6829;BME280;17930;48.592;8.868;2023-05-20T05:22:07;96760.69;;;13.52;100.00
6829;BME280;17930;48.592;8.868;2023-05-20T05:24:35;96766.31;;;13.59;100.00
6829;BME280;17930;48.592;8.868;2023-05-20T05:27:02;96758.94;;;13.61;100.00
6829;BME280;17930;48.592;8.868;2023-05-20T05:29:29;96766.53;;;13.76;100.00
6829;BME280;17930;48.592;8.868;2023-05-20T05:31:55;96752.72;;;13.84;100.00
6829;BME280;17930;48.592;8.868;2023-05-20T05:34:22;96753.13;;;13.91;100.00
6829;BME280;17930;48.592;8.868;2023-05-20T05:36:49;96748.25;;;13.98;100.00
6829;BME280;17930;48.592;8.868;2023-05-20T05:39:15;96751.97;;;13.97;100.00
6829;BME280;17930;48.592;8.868;2023-05-20T05:41:43;96752.91;;;14.01;100.00
6829;BME280;17930;48.592;8.868;2023-05-20T05:44:10;96750.25;;;14.06;100.00
6829;BME280;17930;48.592;8.868;2023-05-20T05:46:36;96749.25;;;14.02;100.00
6829;BME280;17930;48.592;8.868;2023-05-20T05:49:03;96746.22;;;13.95;100.00
6829;BME280;17930;48.592;8.868;2023-05-20T05:51:30;96756.63;;;14.13;100.00
6829;BME280;17930;48.592;8.868;2023-05-20T05:53:56;96759.56;;;14.12;100.00
6829;BME280;17930;48.592;8.868;2023-05-20T05:56:23;96760.41;;;14.34;100.00
6829;BME280;17930;48.592;8.868;2023-05-20T05:58:51;96762.25;;;14.33;100.00
6829;BME280;17930;48.592;8.868;2023-05-20T06:01:18;96753.91;;;14.32;100.00
6829;BME280;17930;48.592;8.868;2023-05-20T06:03:44;96750.50;;;14.18;100.00
6829;BME280;17930;48.592;8.868;2023-05-20T06:06:11;96748.25;;;14.38;100.00
6829;BME280;17930;48.592;8.868;2023-05-20T06:08:38;96749.19;;;14.55;100.00
6829;BME280;17930;48.592;8.868;2023-05-20T06:11:04;96745.84;;;14.63;100.00
6829;BME280;17930;48.592;8.868;2023-05-20T06:13:31;96746.69;;;14.94;100.00
6829;BME280;17930;48.592;8.868;2023-05-20T06:15:59;96742.53;;;15.15;100.00
6829;BME280;17930;48.592;8.868;2023-05-20T06:18:25;96738.81;;;15.16;100.00
6829;BME280;17930;48.592;8.868;2023-05-20T06:20:55;96735.59;;;15.40;100.00
6829;BME280;17930;48.592;8.868;2023-05-20T06:23:22;96736.53;;;15.44;100.00
6829;BME280;17930;48.592;8.868;2023-05-20T06:25:49;96733.13;;;15.83;100.00
6829;BME280;17930;48.592;8.868;2023-05-20T06:28:16;96729.66;;;16.12;100.00
6829;BME280;17930;48.592;8.868;2023-05-20T06:30:42;96726.59;;;16.19;100.00
6829;BME280;17930;48.592;8.868;2023-05-20T06:33:11;96728.13;;;16.20;100.00
6829;BME280;17930;48.592;8.868;2023-05-20T06:35:38;96725.28;;;15.91;100.00
6829;BME280;17930;48.592;8.868;2023-05-20T06:38:04;96717.22;;;15.96;100.00
6829;BME280;17930;48.592;8.868;2023-05-20T06:40:31;96722.28;;;16.31;100.00
6829;BME280;17930;48.592;8.868;2023-05-20T06:42:58;96723.41;;;16.39;100.00
6829;BME280;17930;48.592;8.868;2023-05-20T06:45:25;96717.84;;;16.57;100.00
6829;BME280;17930;48.592;8.868;2023-05-20T06:47:51;96716.59;;;16.80;100.00
6829;BME280;17930;48.592;8.868;2023-05-20T06:50:20;96720.59;;;17.11;100.00
6829;BME280;17930;48.592;8.868;2023-05-20T06:52:46;96719.97;;;17.22;100.00
6829;BME280;17930;48.592;8.868;2023-05-20T06:55:14;96714.69;;;17.05;100.00
6829;BME280;17930;48.592;8.868;2023-05-20T06:57:40;96719.69;;;16.65;100.00
6829;BME280;17930;48.592;8.868;2023-05-20T07:00:10;96716.13;;;16.69;100.00
6829;BME280;17930;48.592;8.868;2023-05-20T07:02:38;96714.25;;;16.95;100.00
6829;BME280;17930;48.592;8.868;2023-05-20T07:05:05;96722.59;;;17.14;100.00
6829;BME280;17930;48.592;8.868;2023-05-20T07:07:33;96712.38;;;17.04;100.00
6829;BME280;17930;48.592;8.868;2023-05-20T07:10:00;96708.34;;;17.15;100.00
6829;BME280;17930;48.592;8.868;2023-05-20T07:12:30;96707.22;;;17.33;100.00
6829;BME280;17930;48.592;8.868;2023-05-20T07:14:56;96706.06;;;17.59;100.00
6829;BME280;17930;48.592;8.868;2023-05-20T07:17:23;96709.34;;;17.56;100.00
6829;BME280;17930;48.592;8.868;2023-05-20T07:19:50;96709.50;;;17.43;100.00
6829;BME280;17930;48.592;8.868;2023-05-20T07:22:17;96701.19;;;17.24;100.00
6829;BME280;17930;48.592;8.868;2023-05-20T07:24:45;96699.19;;;17.04;100.00
6829;BME280;17930;48.592;8.868;2023-05-20T07:27:12;96703.66;;;17.29;100.00
6829;BME280;17930;48.592;8.868;2023-05-20T07:29:38;96702.53;;;17.46;100.00
6829;BME280;17930;48.592;8.868;2023-05-20T07:32:07;96716.69;;;17.71;100.00
6829;BME280;17930;48.592;8.868;2023-05-20T07:34:34;96710.09;;;17.56;100.00
6829;BME280;17930;48.592;8.868;2023-05-20T07:37:00;96694.59;;;17.84;100.00
6829;BME280;17930;48.592;8.868;2023-05-20T07:39:27;96701.47;;;18.05;100.00
6829;BME280;17930;48.592;8.868;2023-05-20T07:41:55;96690.56;;;18.15;100.00
6829;BME280;17930;48.592;8.868;2023-05-20T07:44:22;96684.03;;;18.21;100.00
6829;BME280;17930;48.592;8.868;2023-05-20T07:46:48;96691.81;;;18.09;100.00
6829;BME280;17930;48.592;8.868;2023-05-20T07:49:15;96689.94;;;18.18;100.00
6829;BME280;17930;48.592;8.868;2023-05-20T07:51:42;96686.03;;;18.24;100.00
6829;BME280;17930;48.592;8.868;2023-05-20T07:54:08;96677.63;;;18.62;100.00
6829;BME280;17930;48.592;8.868;2023-05-20T07:56:36;96684.25;;;18.89;100.00
6829;BME280;17930;48.592;8.868;2023-05-20T07:59:03;96673.13;;;19.15;100.00
6829;BME280;17930;48.592;8.868;2023-05-20T08:01:30;96661.59;;;19.55;100.00
6829;BME280;17930;48.592;8.868;2023-05-20T08:03:57;96655.16;;;20.40;100.00
6829;BME280;17930;48.592;8.868;2023-05-20T08:06:24;96660.03;;;20.65;100.00
6829;BME280;17930;48.592;8.868;2023-05-20T08:08:51;96661.63;;;21.66;100.00
6829;BME280;17930;48.592;8.868;2023-05-20T08:11:19;96670.56;;;21.16;100.00
6829;BME280;17930;48.592;8.868;2023-05-20T08:13:45;96671.94;;;20.83;100.00
6829;BME280;17930;48.592;8.868;2023-05-20T08:16:14;96681.72;;;20.16;100.00
6829;BME280;17930;48.592;8.868;2023-05-20T08:18:40;96683.44;;;19.64;100.00
6829;BME280;17930;48.592;8.868;2023-05-20T08:21:07;96692.69;;;19.47;100.00
6829;BME280;17930;48.592;8.868;2023-05-20T08:23:35;96693.78;;;19.34;100.00
6829;BME280;17930;48.592;8.868;2023-05-20T08:26:01;96691.78;;;19.31;100.00
6829;BME280;17930;48.592;8.868;2023-05-20T08:28:28;96682.97;;;19.39;100.00
6829;BME280;17930;48.592;8.868;2023-05-20T08:30:55;96689.00;;;19.83;100.00
6829;BME280;17930;48.592;8.868;2023-05-20T08:33:24;96693.03;;;19.69;100.00
6829;BME280;17930;48.592;8.868;2023-05-20T08:35:51;96693.59;;;19.62;100.00
6829;BME280;17930;48.592;8.868;2023-05-20T08:38:18;96689.75;;;19.84;100.00
6829;BME280;17930;48.592;8.868;2023-05-20T08:40:45;96684.03;;;19.94;100.00
6829;BME280;17930;48.592;8.868;2023-05-20T08:43:11;96682.59;;;19.96;100.00
6829;BME280;17930;48.592;8.868;2023-05-20T08:45:38;96681.25;;;20.26;100.00
6829;BME280;17930;48.592;8.868;2023-05-20T08:48:05;96675.53;;;20.12;100.00
6829;BME280;17930;48.592;8.868;2023-05-20T08:50:34;96679.34;;;21.78;100.00
6829;BME280;17930;48.592;8.868;2023-05-20T08:53:01;96677.66;;;22.35;100.00
6829;BME280;17930;48.592;8.868;2023-05-20T08:55:36;96666.78;;;22.96;100.00
6829;BME280;17930;48.592;8.868;2023-05-20T08:58:03;96673.88;;;21.13;100.00
6829;BME280;17930;48.592;8.868;2023-05-20T09:00:30;96670.25;;;20.51;100.00
6829;BME280;17930;48.592;8.868;2023-05-20T09:02:58;96666.63;;;20.83;100.00
6829;BME280;17930;48.592;8.868;2023-05-20T09:05:25;96660.28;;;21.14;100.00
6829;BME280;17930;48.592;8.868;2023-05-20T09:08:03;96658.97;;;22.16;100.00
6829;BME280;17930;48.592;8.868;2023-05-20T09:10:31;96655.13;;;21.49;100.00
6829;BME280;17930;48.592;8.868;2023-05-20T09:12:59;96664.88;;;21.75;100.00
6829;BME280;17930;48.592;8.868;2023-05-20T09:15:26;96663.53;;;22.15;100.00
6829;BME280;17930;48.592;8.868;2023-05-20T09:17:53;96662.72;;;21.81;100.00
6829;BME280;17930;48.592;8.868;2023-05-20T09:20:21;96668.47;;;21.98;100.00
6829;BME280;17930;48.592;8.868;2023-05-20T09:22:50;96668.31;;;21.61;100.00
6829;BME280;17930;48.592;8.868;2023-05-20T09:25:20;96675.00;;;21.55;100.00
6829;BME280;17930;48.592;8.868;2023-05-20T09:27:47;96675.25;;;22.30;100.00
6829;BME280;17930;48.592;8.868;2023-05-20T09:30:14;96674.13;;;21.81;100.00
6829;BME280;17930;48.592;8.868;2023-05-20T09:32:44;96664.56;;;20.76;100.00
6829;BME280;17930;48.592;8.868;2023-05-20T09:35:12;96666.34;;;20.60;100.00
6829;BME280;17930;48.592;8.868;2023-05-20T09:37:41;96656.81;;;21.57;100.00
6829;BME280;17930;48.592;8.868;2023-05-20T09:40:10;96651.69;;;22.13;100.00
6829;BME280;17930;48.592;8.868;2023-05-20T09:42:41;96639.81;;;23.87;100.00
6829;BME280;17930;48.592;8.868;2023-05-20T09:45:09;96621.94;;;25.44;99.97
6829;BME280;17930;48.592;8.868;2023-05-20T09:47:37;96633.44;;;25.08;99.27
6829;BME280;17930;48.592;8.868;2023-05-20T09:50:06;96634.53;;;25.40;97.70
6829;BME280;17930;48.592;8.868;2023-05-20T09:52:36;96630.22;;;25.72;92.66
6829;BME280;17930;48.592;8.868;2023-05-20T09:55:04;96620.25;;;24.89;93.14
6829;BME280;17930;48.592;8.868;2023-05-20T09:57:33;96624.97;;;25.85;94.45
6829;BME280;17930;48.592;8.868;2023-05-20T10:00:02;96619.53;;;28.00;85.06
6829;BME280;17930;48.592;8.868;2023-05-20T10:02:30;96606.09;;;29.13;77.05
6829;BME280;17930;48.592;8.868;2023-05-20T10:04:58;96620.31;;;27.62;74.45
6829;BME280;17930;48.592;8.868;2023-05-20T10:07:42;96613.69;;;26.09;77.11
6829;BME280;17930;48.592;8.868;2023-05-20T10:10:24;96615.78;;;25.80;83.09
6829;BME280;17930;48.592;8.868;2023-05-20T10:13:01;96611.69;;;24.74;82.94
6829;BME280;17930;48.592;8.868;2023-05-20T10:15:37;96617.28;;;23.59;91.82
6829;BME280;17930;48.592;8.868;2023-05-20T10:18:15;96622.69;;;23.84;95.54
6829;BME280;17930;48.592;8.868;2023-05-20T10:20:45;96611.72;;;23.67;95.55
6829;BME280;17930;48.592;8.868;2023-05-20T10:23:19;96617.00;;;24.15;96.44
6829;BME280;17930;48.592;8.868;2023-05-20T10:25:49;96615.63;;;24.86;91.12
6829;BME280;17930;48.592;8.868;2023-05-20T10:28:26;96609.13;;;25.63;89.64
6829;BME280;17930;48.592;8.868;2023-05-20T10:30:55;96606.81;;;26.93;82.09
6829;BME280;17930;48.592;8.868;2023-05-20T10:33:22;96599.56;;;28.29;75.09
6829;BME280;17930;48.592;8.868;2023-05-20T10:35:49;96592.53;;;28.59;74.34
6829;BME280;17930;48.592;8.868;2023-05-20T10:38:17;96593.09;;;27.81;70.63
6829;BME280;17930;48.592;8.868;2023-05-20T10:40:45;96595.75;;;27.43;76.83
6829;BME280;17930;48.592;8.868;2023-05-20T10:43:13;96595.00;;;27.25;74.66
6829;BME280;17930;48.592;8.868;2023-05-20T10:45:49;96580.81;;;29.03;73.05
6829;BME280;17930;48.592;8.868;2023-05-20T10:48:23;96575.81;;;30.69;70.01
6829;BME280;17930;48.592;8.868;2023-05-20T10:50:52;96579.81;;;30.21;63.92
6829;BME280;17930;48.592;8.868;2023-05-20T10:53:21;96573.47;;;29.11;65.44
6829;BME280;17930;48.592;8.868;2023-05-20T10:55:49;96577.41;;;27.69;70.41
6829;BME280;17930;48.592;8.868;2023-05-20T10:58:17;96568.22;;;27.77;72.38
6829;BME280;17930;48.592;8.868;2023-05-20T11:00:44;96576.22;;;27.15;71.94
6829;BME280;17930;48.592;8.868;2023-05-20T11:03:13;96585.19;;;25.34;76.06
6829;BME280;17930;48.592;8.868;2023-05-20T11:05:43;96575.06;;;24.74;81.42
6829;BME280;17930;48.592;8.868;2023-05-20T11:08:11;96564.63;;;24.98;82.53
6829;BME280;17930;48.592;8.868;2023-05-20T11:10:37;96569.47;;;25.22;83.84
6829;BME280;17930;48.592;8.868;2023-05-20T11:13:04;96570.06;;;25.05;85.15
6829;BME280;17930;48.592;8.868;2023-05-20T11:15:33;96566.22;;;25.03;87.53
6829;BME280;17930;48.592;8.868;2023-05-20T11:18:01;96564.97;;;24.28;90.17
6829;BME280;17930;48.592;8.868;2023-05-20T11:20:29;96564.13;;;24.50;88.25
6829;BME280;17930;48.592;8.868;2023-05-20T11:23:01;96564.66;;;24.62;92.22
6829;BME280;17930;48.592;8.868;2023-05-20T11:25:28;96556.34;;;24.38;89.66
6829;BME280;17930;48.592;8.868;2023-05-20T11:27:55;96555.91;;;25.01;90.47
6829;BME280;17930;48.592;8.868;2023-05-20T11:30:22;96560.25;;;25.16;85.87
6829;BME280;17930;48.592;8.868;2023-05-20T11:32:57;96556.78;;;25.62;84.15
6829;BME280;17930;48.592;8.868;2023-05-20T11:35:26;96561.97;;;25.38;83.85
6829;BME280;17930;48.592;8.868;2023-05-20T11:38:02;96559.16;;;24.48;88.25
6829;BME280;17930;48.592;8.868;2023-05-20T11:40:31;96552.38;;;24.25;92.64
6829;BME280;17930;48.592;8.868;2023-05-20T11:42:58;96550.53;;;25.41;92.63
6829;BME280;17930;48.592;8.868;2023-05-20T11:45:26;96537.13;;;27.87;81.22
6829;BME280;17930;48.592;8.868;2023-05-20T11:48:00;96528.00;;;28.73;72.60
6829;BME280;17930;48.592;8.868;2023-05-20T11:50:27;96527.59;;;27.79;72.99
6829;BME280;17930;48.592;8.868;2023-05-20T11:52:56;96541.97;;;26.39;75.72
6829;BME280;17930;48.592;8.868;2023-05-20T11:55:24;96533.31;;;26.90;78.68
6829;BME280;17930;48.592;8.868;2023-05-20T11:57:51;96532.97;;;27.44;75.76
6829;BME280;17930;48.592;8.868;2023-05-20T12:00:18;96529.91;;;27.70;74.21
6829;BME280;17930;48.592;8.868;2023-05-20T12:02:45;96532.97;;;27.79;72.92
6829;BME280;17930;48.592;8.868;2023-05-20T12:05:12;96525.00;;;28.57;68.87
6829;BME280;17930;48.592;8.868;2023-05-20T12:07:39;96521.44;;;29.35;67.62
6829;BME280;17930;48.592;8.868;2023-05-20T12:10:07;96523.81;;;29.22;68.27
6829;BME280;17930;48.592;8.868;2023-05-20T12:12:35;96518.47;;;30.39;64.75
6829;BME280;17930;48.592;8.868;2023-05-20T12:15:03;96500.72;;;30.71;64.43
6829;BME280;17930;48.592;8.868;2023-05-20T12:17:31;96494.34;;;30.85;62.10
6829;BME280;17930;48.592;8.868;2023-05-20T12:19:57;96497.63;;;30.73;59.86
6829;BME280;17930;48.592;8.868;2023-05-20T12:22:24;96505.25;;;29.82;62.70
6829;BME280;17930;48.592;8.868;2023-05-20T12:24:51;96500.69;;;28.85;64.05
6829;BME280;17930;48.592;8.868;2023-05-20T12:27:17;96489.16;;;29.38;62.55
6829;BME280;17930;48.592;8.868;2023-05-20T12:29:45;96499.72;;;29.96;62.10
6829;BME280;17930;48.592;8.868;2023-05-20T12:32:12;96481.84;;;30.98;63.61
6829;BME280;17930;48.592;8.868;2023-05-20T12:34:39;96488.34;;;30.48;60.47
6829;BME280;17930;48.592;8.868;2023-05-20T12:37:06;96492.72;;;29.28;63.07
6829;BME280;17930;48.592;8.868;2023-05-20T12:39:32;96481.97;;;30.61;61.25
6829;BME280;17930;48.592;8.868;2023-05-20T12:41:59;96479.69;;;30.86;57.98
6829;BME280;17930;48.592;8.868;2023-05-20T12:44:26;96483.94;;;29.61;61.35
6829;BME280;17930;48.592;8.868;2023-05-20T12:46:55;96482.13;;;28.43;62.84
6829;BME280;17930;48.592;8.868;2023-05-20T12:49:21;96486.69;;;28.49;64.43
6829;BME280;17930;48.592;8.868;2023-05-20T12:51:48;96481.03;;;28.30;64.95
6829;BME280;17930;48.592;8.868;2023-05-20T12:54:16;96484.28;;;28.65;63.71
6829;BME280;17930;48.592;8.868;2023-05-20T12:56:43;96475.31;;;28.28;64.32
6829;BME280;17930;48.592;8.868;2023-05-20T12:59:12;96484.34;;;27.35;67.09
6829;BME280;17930;48.592;8.868;2023-05-20T13:01:38;96484.38;;;28.55;66.62
6829;BME280;17930;48.592;8.868;2023-05-20T13:04:06;96477.53;;;28.43;63.53